Time;durP1;ratioP1;P1;durP2;ratioP2;P2;SDS_P1;SDS_P2;PMS_P1;PMS_P2;Temp;Humidity;BMP_temperature;BMP_pressure;BME280_temperature;BME280_humidity;BME280_pressure;Samples;Min_cycle;Max_cycle;Signal;HPM_P1;HPM_P2
2022/05/28 00:01:04;;;;;;;10.57;2.60;;;9.40;84.70;;;;;;5036687;28;20236;-85
2022/05/28 00:03:30;;;;;;;8.60;1.87;;;9.20;84.80;;;;;;5037027;28;20192;-85
2022/05/28 00:05:56;;;;;;;14.10;2.50;;;8.80;84.20;;;;;;5037728;28;20187;-84
2022/05/28 00:08:24;;;;;;;11.30;2.10;;;8.60;84.20;;;;;;5038193;28;20699;-84
2022/05/28 00:10:51;;;;;;;13.03;3.07;;;8.50;84.80;;;;;;5038904;28;20279;-84
2022/05/28 00:13:16;;;;;;;11.63;2.70;;;8.60;85.30;;;;;;5056811;28;20271;-84
2022/05/28 00:15:42;;;;;;;10.67;2.30;;;8.50;85.50;;;;;;5056248;28;20637;-84
2022/05/28 00:18:08;;;;;;;15.60;2.33;;;8.50;85.80;;;;;;5055777;28;20218;-83
2022/05/28 00:20:34;;;;;;;14.80;2.90;;;8.50;86.20;;;;;;5055047;28;20522;-84
2022/05/28 00:23:00;;;;;;;20.70;5.37;;;8.70;86.50;;;;;;5037470;28;20206;-85
2022/05/28 00:25:26;;;;;;;11.37;3.00;;;8.80;86.80;;;;;;5038139;28;20187;-86
2022/05/28 00:27:53;;;;;;;14.53;3.17;;;8.70;86.90;;;;;;5056275;28;20533;-85
2022/05/28 00:30:19;;;;;;;19.27;4.63;;;8.80;87.30;;;;;;5037706;28;20172;-85
2022/05/28 00:32:44;;;;;;;20.13;4.20;;;8.90;87.50;;;;;;5054871;28;20254;-86
2022/05/28 00:35:15;;;;;;;18.27;4.10;;;8.90;87.70;;;;;;5035841;28;20230;-86
2022/05/28 00:37:41;;;;;;;20.93;3.87;;;8.90;87.90;;;;;;5036286;28;20195;-85
2022/05/28 00:40:13;;;;;;;15.50;2.93;;;9.10;88.10;;;;;;5054182;28;20203;-85
2022/05/28 00:42:38;;;;;;;28.20;5.37;;;9.20;87.90;;;;;;5053950;28;20202;-87
2022/05/28 00:45:05;;;;;;;25.53;5.00;;;9.20;87.90;;;;;;5058917;28;20175;-85
2022/05/28 00:47:31;;;;;;;21.00;4.33;;;9.20;87.90;;;;;;5042606;28;20275;-85
2022/05/28 00:49:57;;;;;;;13.67;2.97;;;9.20;88.10;;;;;;5043201;28;20203;-86
2022/05/28 00:52:25;;;;;;;8.40;2.83;;;9.00;87.80;;;;;;5042613;28;20196;-85
2022/05/28 00:54:52;;;;;;;13.17;2.93;;;9.00;87.40;;;;;;5042430;28;20265;-87
2022/05/28 00:57:20;;;;;;;11.97;2.23;;;8.90;87.80;;;;;;5043041;28;20234;-87
2022/05/28 00:59:46;;;;;;;11.00;2.57;;;8.80;88.10;;;;;;5043002;28;20172;-86
2022/05/28 01:02:20;;;;;;;11.47;2.40;;;8.70;88.30;;;;;;5061389;28;20329;-87
2022/05/28 01:05:05;;;;;;;9.33;2.13;;;8.70;88.40;;;;;;5059984;28;20176;-87
2022/05/28 01:08:02;;;;;;;4.60;1.90;;;8.70;88.20;;;;;;5041890;28;20168;-85
2022/05/28 01:11:00;;;;;;;3.80;1.93;;;8.70;87.80;;;;;;5041881;28;20175;-85
2022/05/28 01:13:38;;;;;;;5.07;1.60;;;8.60;87.60;;;;;;5028314;28;20248;-86
2022/05/28 01:16:48;;;;;;;9.00;2.20;;;8.60;87.60;;;;;;5041715;28;20199;-88
2022/05/28 01:19:26;;;;;;;10.60;2.93;;;8.50;87.60;;;;;;5042518;28;20529;-86
2022/05/28 01:22:14;;;;;;;10.67;2.50;;;8.10;87.00;;;;;;5042014;28;20685;-86
2022/05/28 01:24:49;;;;;;;8.17;2.43;;;7.80;86.50;;;;;;5040405;28;20183;-86
2022/05/28 01:27:21;;;;;;;14.20;3.00;;;7.80;87.00;;;;;;5040923;28;20692;-86
2022/05/28 01:29:51;;;;;;;9.57;2.63;;;8.00;87.60;;;;;;5042335;28;20227;-84
2022/05/28 01:32:19;;;;;;;9.83;2.80;;;8.00;87.80;;;;;;5042668;28;20651;-87
2022/05/28 01:34:45;;;;;;;10.60;2.90;;;8.00;88.30;;;;;;5060585;28;20188;-85
2022/05/28 01:37:12;;;;;;;8.60;2.30;;;8.00;88.70;;;;;;5041961;28;20267;-88
2022/05/28 01:39:41;;;;;;;7.27;2.13;;;8.10;89.00;;;;;;5041817;28;20179;-86
2022/05/28 01:42:09;;;;;;;7.53;2.33;;;8.20;89.00;;;;;;5060118;28;20188;-86
2022/05/28 01:44:38;;;;;;;6.07;2.00;;;8.10;89.00;;;;;;5041358;28;20176;-87
2022/05/28 01:47:03;;;;;;;6.07;1.83;;;8.20;89.00;;;;;;5058521;28;20266;-85
2022/05/28 01:49:29;;;;;;;6.10;2.47;;;8.30;88.90;;;;;;5041819;28;20188;-85
2022/05/28 01:51:58;;;;;;;10.00;2.20;;;8.30;89.00;;;;;;5058524;28;20196;-87
2022/05/28 01:54:35;;;;;;;11.93;2.20;;;8.30;89.10;;;;;;5040939;28;20179;-87
2022/05/28 01:57:01;;;;;;;13.87;2.40;;;8.40;89.20;;;;;;5039866;28;20167;-87
2022/05/28 01:59:33;;;;;;;12.57;2.60;;;8.30;89.30;;;;;;5040367;28;20172;-87
2022/05/28 02:02:01;;;;;;;9.60;2.60;;;8.50;89.50;;;;;;5058896;28;20188;-86
2022/05/28 02:04:29;;;;;;;10.97;2.20;;;8.50;89.50;;;;;;5057895;28;20681;-87
2022/05/28 02:06:55;;;;;;;16.70;2.70;;;8.50;89.70;;;;;;5040185;28;20199;-85
2022/05/28 02:09:33;;;;;;;17.27;3.13;;;8.50;89.80;;;;;;5038695;28;20642;-85
2022/05/28 02:12:10;;;;;;;16.67;2.90;;;8.40;89.80;;;;;;5039904;28;20250;-86
2022/05/28 02:14:52;;;;;;;14.20;2.70;;;8.40;89.90;;;;;;5039432;28;20198;-84
2022/05/28 02:17:32;;;;;;;10.03;2.50;;;8.40;90.10;;;;;;5056070;28;20270;-86
2022/05/28 02:20:06;;;;;;;11.23;2.40;;;8.40;90.20;;;;;;5037824;28;20622;-86
2022/05/28 02:22:47;;;;;;;18.70;3.33;;;8.40;90.30;;;;;;5055491;28;20669;-86
2022/05/28 02:25:40;;;;;;;17.47;2.87;;;8.40;90.40;;;;;;5037362;28;20187;-85
2022/05/28 02:28:08;;;;;;;18.53;3.07;;;8.40;90.40;;;;;;5041066;28;20674;-86
2022/05/28 02:30:44;;;;;;;14.10;2.60;;;8.50;90.50;;;;;;5037597;28;20176;-85
2022/05/28 02:33:10;;;;;;;12.73;3.17;;;8.40;90.40;;;;;;5055010;28;20240;-86
2022/05/28 02:35:35;;;;;;;17.30;2.93;;;8.40;90.50;;;;;;5054970;28;20287;-86
2022/05/28 02:38:01;;;;;;;16.00;3.17;;;8.50;90.60;;;;;;5037218;28;20676;-86
2022/05/28 02:40:26;;;;;;;17.50;3.13;;;8.50;90.60;;;;;;5055041;28;20180;-86
2022/05/28 02:42:53;;;;;;;13.90;3.00;;;8.60;90.70;;;;;;5055159;28;20589;-86
2022/05/28 02:45:19;;;;;;;16.27;3.10;;;8.60;90.70;;;;;;5055120;28;20642;-86
2022/05/28 02:47:45;;;;;;;21.53;3.57;;;8.60;90.70;;;;;;5037050;28;20183;-86
2022/05/28 02:50:11;;;;;;;23.13;4.33;;;8.70;90.70;;;;;;5037182;28;20172;-86
2022/05/28 02:52:36;;;;;;;22.80;3.37;;;8.70;90.70;;;;;;5037151;28;20533;-86
2022/05/28 02:55:03;;;;;;;20.83;3.90;;;8.80;90.70;;;;;;5055378;28;20195;-86
2022/05/28 02:57:28;;;;;;;29.00;4.30;;;8.70;90.80;;;;;;5039744;28;20179;-86
2022/05/28 02:59:56;;;;;;;16.50;3.87;;;8.80;90.90;;;;;;5039957;28;20666;-86
2022/05/28 03:02:22;;;;;;;21.47;3.67;;;8.80;90.90;;;;;;5038611;28;20237;-87
2022/05/28 03:04:47;;;;;;;25.50;4.03;;;8.80;90.90;;;;;;5039306;28;20274;-86
2022/05/28 03:07:13;;;;;;;17.43;3.73;;;8.90;90.90;;;;;;5039657;28;20176;-87
2022/05/28 03:09:38;;;;;;;14.73;3.53;;;8.90;90.80;;;;;;5038713;28;20176;-86
2022/05/28 03:12:04;;;;;;;17.93;2.80;;;8.90;90.70;;;;;;5056659;28;20682;-86
2022/05/28 03:14:30;;;;;;;13.63;3.10;;;9.00;90.50;;;;;;5039192;28;20184;-87
2022/05/28 03:16:56;;;;;;;12.10;3.23;;;9.00;90.20;;;;;;5057856;28;20170;-86
2022/05/28 03:19:21;;;;;;;16.90;3.43;;;9.10;90.00;;;;;;5038794;28;20544;-88
2022/05/28 03:21:47;;;;;;;17.60;3.50;;;9.10;90.00;;;;;;5056097;28;20195;-87
2022/05/28 03:24:12;;;;;;;12.73;3.37;;;9.20;90.00;;;;;;5056959;28;20546;-85
2022/05/28 03:26:38;;;;;;;17.23;3.43;;;9.20;90.10;;;;;;5057861;28;20569;-87
2022/05/28 03:29:04;;;;;;;14.57;3.30;;;9.30;90.10;;;;;;5039241;28;20187;-87
2022/05/28 03:31:31;;;;;;;18.57;3.33;;;9.30;90.10;;;;;;5056828;28;20179;-86
2022/05/28 03:33:57;;;;;;;16.80;3.53;;;9.30;90.00;;;;;;5058093;28;20203;-88
2022/05/28 03:36:24;;;;;;;25.13;5.80;;;9.40;90.00;;;;;;5057186;28;20207;-86
2022/05/28 03:38:50;;;;;;;20.20;3.83;;;9.50;90.10;;;;;;5038973;28;20180;-86
2022/05/28 03:41:17;;;;;;;24.50;4.20;;;9.50;89.90;;;;;;5057420;28;20179;-86
2022/05/28 03:43:43;;;;;;;14.73;2.97;;;9.50;89.70;;;;;;5039465;28;20617;-86
2022/05/28 03:46:29;;;;;;;24.33;4.40;;;9.70;89.50;;;;;;5039004;28;20180;-87
2022/05/28 03:49:11;;;;;;;14.63;4.23;;;9.70;89.30;;;;;;5057862;28;20236;-86
2022/05/28 03:51:36;;;;;;;32.70;5.50;;;9.80;89.00;;;;;;5040106;28;20181;-86
2022/05/28 03:54:02;;;;;;;24.27;3.50;;;9.80;88.70;;;;;;5056199;28;20176;-88
2022/05/28 03:56:34;;;;;;;17.87;3.37;;;9.80;88.60;;;;;;5038075;28;20265;-86
2022/05/28 03:59:00;;;;;;;18.43;3.17;;;9.70;88.80;;;;;;5037535;28;20263;-86
2022/05/28 04:01:25;;;;;;;12.43;2.87;;;9.70;89.10;;;;;;5037631;28;20176;-86
2022/05/28 04:03:51;;;;;;;12.10;3.43;;;9.60;89.20;;;;;;5038216;28;20180;-87
2022/05/28 04:06:16;;;;;;;9.37;2.80;;;9.50;89.20;;;;;;5038433;28;20554;-86
2022/05/28 04:08:42;;;;;;;16.03;3.27;;;9.50;89.40;;;;;;5038061;28;20567;-86
2022/05/28 04:11:08;;;;;;;13.30;3.00;;;9.50;89.40;;;;;;5038046;28;20179;-86
2022/05/28 04:13:33;;;;;;;10.90;3.23;;;9.50;89.40;;;;;;5056506;28;20196;-86
2022/05/28 04:15:59;;;;;;;10.23;2.70;;;9.50;89.20;;;;;;5056018;28;20203;-86
2022/05/28 04:18:25;;;;;;;7.53;2.80;;;9.50;89.10;;;;;;5038443;28;20178;-86
2022/05/28 04:20:51;;;;;;;19.57;3.87;;;9.60;89.10;;;;;;5039282;28;20172;-86
2022/05/28 04:23:17;;;;;;;16.70;3.30;;;9.60;89.20;;;;;;5039008;28;20640;-87
2022/05/28 04:25:43;;;;;;;17.50;4.30;;;9.60;89.10;;;;;;5057166;28;20231;-86
2022/05/28 04:28:09;;;;;;;18.17;3.67;;;9.70;89.00;;;;;;5038760;28;20179;-87
2022/05/28 04:30:35;;;;;;;17.70;3.60;;;9.70;89.00;;;;;;5057140;28;20167;-86
2022/05/28 04:33:00;;;;;;;20.00;3.60;;;9.70;89.10;;;;;;5039087;28;20203;-87
2022/05/28 04:35:26;;;;;;;24.47;5.30;;;9.80;89.30;;;;;;5056523;28;20203;-86
2022/05/28 04:37:51;;;;;;;22.47;4.33;;;9.90;89.40;;;;;;5038857;28;20543;-87
2022/05/28 04:40:17;;;;;;;23.50;4.43;;;10.00;89.40;;;;;;5055831;28;20546;-86
2022/05/28 04:42:42;;;;;;;20.00;4.07;;;10.10;89.30;;;;;;5057415;28;20276;-87
2022/05/28 04:45:08;;;;;;;19.93;4.70;;;10.10;89.30;;;;;;5056066;28;20723;-86
2022/05/28 04:47:35;;;;;;;20.80;4.37;;;10.10;89.20;;;;;;5037730;28;20595;-87
2022/05/28 04:50:00;;;;;;;29.60;5.13;;;10.10;89.10;;;;;;5055090;28;20585;-86
2022/05/28 04:52:26;;;;;;;18.47;4.70;;;10.20;89.00;;;;;;5056370;28;20245;-86
2022/05/28 04:54:51;;;;;;;26.57;4.93;;;10.20;89.00;;;;;;5038951;28;20580;-86
2022/05/28 04:57:17;;;;;;;15.37;4.10;;;10.30;88.90;;;;;;5038595;28;20547;-86
2022/05/28 04:59:42;;;;;;;19.37;4.43;;;10.30;88.90;;;;;;5056348;28;20176;-86
2022/05/28 05:02:09;;;;;;;28.90;6.37;;;10.30;88.50;;;;;;5036976;28;20267;-86
2022/05/28 05:04:34;;;;;;;19.20;3.93;;;10.30;88.20;;;;;;5038418;28;20255;-86
2022/05/28 05:07:00;;;;;;;21.50;4.03;;;10.30;88.20;;;;;;5038423;28;20250;-86
2022/05/28 05:09:25;;;;;;;15.80;3.77;;;10.30;88.30;;;;;;5056004;28;20168;-86
2022/05/28 05:11:51;;;;;;;17.40;3.53;;;10.30;87.40;;;;;;5037663;28;20188;-86
2022/05/28 05:14:17;;;;;;;21.93;4.33;;;10.30;87.60;;;;;;5055057;28;20251;-86
2022/05/28 05:16:42;;;;;;;19.13;4.10;;;10.40;87.80;;;;;;5038560;28;20242;-86
2022/05/28 05:19:08;;;;;;;21.00;4.53;;;10.50;87.70;;;;;;5038379;28;20223;-86
2022/05/28 05:21:33;;;;;;;20.93;4.50;;;10.60;87.20;;;;;;5056321;28;20183;-87
2022/05/28 05:23:59;;;;;;;15.67;3.70;;;10.70;86.50;;;;;;5039025;28;20180;-86
2022/05/28 05:26:25;;;;;;;19.53;3.90;;;10.70;86.60;;;;;;5038072;28;20203;-85
2022/05/28 05:28:50;;;;;;;14.30;3.83;;;10.70;86.50;;;;;;5056777;28;20176;-86
2022/05/28 05:31:17;;;;;;;9.33;2.90;;;10.60;85.90;;;;;;5042067;28;20180;-87
2022/05/28 05:33:43;;;;;;;15.03;3.27;;;10.40;85.10;;;;;;5058692;28;20647;-85
2022/05/28 05:36:08;;;;;;;13.30;3.40;;;10.40;85.60;;;;;;5041296;28;20208;-87
2022/05/28 05:38:35;;;;;;;10.63;2.87;;;10.50;86.10;;;;;;5059145;28;20550;-87
2022/05/28 05:41:00;;;;;;;12.17;2.77;;;10.50;86.20;;;;;;5059444;28;20172;-86
2022/05/28 05:43:26;;;;;;;16.90;3.83;;;10.60;85.90;;;;;;5041982;28;20577;-85
2022/05/28 05:45:53;;;;;;;14.60;3.53;;;10.70;85.50;;;;;;5041828;28;20634;-86
2022/05/28 05:48:19;;;;;;;21.30;3.77;;;10.70;85.50;;;;;;5059437;28;20255;-86
2022/05/28 05:50:45;;;;;;;18.13;3.20;;;10.80;85.40;;;;;;5059905;28;20200;-86
2022/05/28 05:53:10;;;;;;;20.63;3.90;;;10.80;85.20;;;;;;5041852;28;20196;-86
2022/05/28 05:55:36;;;;;;;18.93;4.07;;;10.90;85.60;;;;;;5040900;28;20196;-85
2022/05/28 05:58:01;;;;;;;22.93;4.13;;;11.00;85.50;;;;;;5041636;28;20168;-86
2022/05/28 06:00:27;;;;;;;27.47;5.80;;;11.10;85.20;;;;;;5041131;28;20175;-85
2022/05/28 06:02:52;;;;;;;14.97;3.87;;;11.10;84.80;;;;;;5040211;28;20250;-85
2022/05/28 06:05:18;;;;;;;20.33;3.90;;;11.20;85.10;;;;;;5058379;28;20273;-87
2022/05/28 06:07:43;;;;;;;20.37;4.73;;;11.20;84.70;;;;;;5040252;28;20188;-86
2022/05/28 06:10:11;;;;;;;32.03;5.63;;;11.30;84.90;;;;;;5041854;28;20172;-85
2022/05/28 06:12:37;;;;;;;17.33;3.47;;;11.40;84.80;;;;;;5058052;28;20231;-86
2022/05/28 06:15:03;;;;;;;16.70;4.80;;;11.40;84.40;;;;;;5038860;28;20644;-86
2022/05/28 06:17:29;;;;;;;19.07;3.83;;;11.40;83.80;;;;;;5057506;28;20164;-85
2022/05/28 06:19:54;;;;;;;17.17;3.97;;;11.30;83.40;;;;;;5040009;28;20186;-85
2022/05/28 06:22:20;;;;;;;28.67;4.20;;;11.30;83.30;;;;;;5039053;28;20249;-85
2022/05/28 06:24:45;;;;;;;20.30;4.27;;;11.30;83.60;;;;;;5058088;28;20654;-86
2022/05/28 06:27:11;;;;;;;15.00;3.47;;;11.30;83.30;;;;;;5059621;28;20270;-86
2022/05/28 06:29:36;;;;;;;18.33;4.70;;;11.20;83.30;;;;;;5041384;28;20191;-86
2022/05/28 06:32:02;;;;;;;23.23;4.30;;;11.20;83.50;;;;;;5060702;28;20200;-86
2022/05/28 06:34:27;;;;;;;21.40;4.37;;;11.00;82.50;;;;;;5042490;28;20277;-86
2022/05/28 06:36:53;;;;;;;24.27;4.70;;;10.90;81.80;;;;;;5040754;28;20182;-88
2022/05/28 06:39:19;;;;;;;19.00;3.40;;;11.10;81.60;;;;;;5040865;28;20181;-86
2022/05/28 06:41:44;;;;;;;18.57;4.13;;;11.10;81.70;;;;;;5057817;28;20584;-86
2022/05/28 06:44:10;;;;;;;17.03;4.23;;;11.10;81.20;;;;;;5040486;28;20172;-86
2022/05/28 06:46:36;;;;;;;16.60;3.80;;;11.20;81.30;;;;;;5040684;28;20176;-86
2022/05/28 06:49:01;;;;;;;18.83;4.20;;;11.30;80.80;;;;;;5040483;28;20319;-85
2022/05/28 06:51:27;;;;;;;20.03;3.80;;;11.30;80.00;;;;;;5039583;28;20176;-86
2022/05/28 06:53:52;;;;;;;24.77;5.47;;;11.50;80.30;;;;;;5057632;28;20229;-86
2022/05/28 06:56:18;;;;;;;22.17;4.97;;;11.50;78.90;;;;;;5057111;28;20195;-85
2022/05/28 06:58:44;;;;;;;17.83;4.27;;;11.60;78.60;;;;;;5039070;28;20198;-85
2022/05/28 07:01:11;;;;;;;23.60;3.67;;;11.80;78.20;;;;;;5039650;28;20172;-85
2022/05/28 07:03:39;;;;;;;19.20;4.23;;;11.90;79.00;;;;;;5039519;28;20214;-85
2022/05/28 07:06:05;;;;;;;16.67;3.83;;;11.80;78.60;;;;;;5037640;28;20183;-88
2022/05/28 07:08:31;;;;;;;18.97;3.90;;;11.70;79.00;;;;;;5037464;28;20210;-87
2022/05/28 07:11:00;;;;;;;12.47;3.80;;;11.70;80.00;;;;;;5055374;28;20174;-86
2022/05/28 07:13:27;;;;;;;10.83;2.73;;;11.40;80.90;;;;;;5055710;28;20199;-87
2022/05/28 07:15:52;;;;;;;11.17;3.43;;;11.30;81.80;;;;;;5037121;28;20207;-86
2022/05/28 07:18:18;;;;;;;14.17;3.33;;;11.20;81.80;;;;;;5054764;28;20172;-86
2022/05/28 07:20:44;;;;;;;13.23;3.77;;;11.30;82.50;;;;;;5054972;28;20176;-87
2022/05/28 07:23:13;;;;;;;19.33;4.30;;;11.30;82.60;;;;;;5055776;28;20191;-87
2022/05/28 07:25:39;;;;;;;17.47;3.90;;;11.50;82.80;;;;;;5037985;28;20294;-86
2022/05/28 07:28:24;;;;;;;17.27;3.87;;;11.60;82.90;;;;;;5037648;28;20646;-86
2022/05/28 07:30:54;;;;;;;20.70;3.27;;;11.80;83.20;;;;;;5038400;28;20191;-86
2022/05/28 07:33:20;;;;;;;12.07;4.17;;;11.70;82.50;;;;;;5037448;28;20203;-86
2022/05/28 07:35:46;;;;;;;22.07;3.97;;;11.50;82.20;;;;;;5037874;28;20696;-86
2022/05/28 07:38:12;;;;;;;13.80;4.07;;;11.20;82.10;;;;;;5037500;28;20196;-86
2022/05/28 07:40:37;;;;;;;9.93;3.03;;;11.10;81.80;;;;;;5055282;28;20630;-86
2022/05/28 07:43:03;;;;;;;13.23;4.40;;;11.00;81.60;;;;;;5055092;28;20210;-86
2022/05/28 07:45:34;;;;;;;16.47;4.07;;;11.10;81.10;;;;;;5037156;28;20238;-86
2022/05/28 07:47:59;;;;;;;14.70;3.90;;;11.00;81.50;;;;;;5037134;28;20199;-86
2022/05/28 07:50:25;;;;;;;15.20;3.93;;;11.10;82.30;;;;;;5037942;28;20172;-87
2022/05/28 07:52:51;;;;;;;24.07;4.67;;;11.30;82.90;;;;;;5036463;28;20196;-86
2022/05/28 07:55:16;;;;;;;16.37;3.73;;;11.50;83.80;;;;;;5037699;28;20200;-87
2022/05/28 07:57:42;;;;;;;22.43;4.10;;;11.80;83.40;;;;;;5055410;28;20180;-87
2022/05/28 08:00:08;;;;;;;18.57;4.20;;;11.90;81.60;;;;;;5037566;28;20262;-86
2022/05/28 08:02:34;;;;;;;26.87;5.43;;;12.00;80.70;;;;;;5037996;28;20192;-86
2022/05/28 08:05:00;;;;;;;27.03;4.67;;;12.10;81.00;;;;;;5038636;28;20270;-86
2022/05/28 08:07:25;;;;;;;19.57;4.27;;;12.30;81.20;;;;;;5055582;28;20214;-86
2022/05/28 08:09:51;;;;;;;22.40;4.90;;;12.30;80.70;;;;;;5057820;28;20186;-86
2022/05/28 08:12:16;;;;;;;23.27;4.53;;;12.60;80.60;;;;;;5036342;28;20196;-88
2022/05/28 08:14:42;;;;;;;20.47;4.50;;;12.70;79.40;;;;;;5038437;28;20192;-86
2022/05/28 08:17:08;;;;;;;24.27;3.83;;;12.80;77.10;;;;;;5039034;28;20183;-86
2022/05/28 08:19:34;;;;;;;21.17;4.73;;;12.80;75.80;;;;;;5039011;28;20226;-85
2022/05/28 08:24:43;;;;;;;27.10;4.40;;;12.90;75.50;;;;;;5056357;28;20226;-86
2022/05/28 08:27:09;;;;;;;18.20;3.73;;;13.00;75.10;;;;;;5056682;28;20199;-85
2022/05/28 08:29:35;;;;;;;26.17;4.03;;;13.00;74.40;;;;;;5038755;28;20200;-85
2022/05/28 08:32:01;;;;;;;17.53;4.23;;;13.00;75.60;;;;;;5038120;28;20195;-86
2022/05/28 08:34:26;;;;;;;18.83;4.03;;;13.00;76.10;;;;;;5039227;28;20183;-86
2022/05/28 08:36:52;;;;;;;19.27;4.53;;;12.80;77.00;;;;;;5036307;28;20206;-85
2022/05/28 08:39:17;;;;;;;21.33;4.27;;;13.00;76.80;;;;;;5035341;28;20531;-86
2022/05/28 08:41:59;;;;;;;25.33;5.63;;;12.90;77.00;;;;;;5035271;28;20168;-85
2022/05/28 08:44:32;;;;;;;31.03;5.60;;;12.60;78.90;;;;;;5035144;28;20266;-85
2022/05/28 08:47:21;;;;;;;29.30;5.37;;;12.30;80.10;;;;;;5053856;28;20203;-85
2022/05/28 08:49:48;;;;;;;15.53;3.37;;;12.20;81.20;;;;;;5036554;28;20176;-86
2022/05/28 08:52:25;;;;;;;15.67;3.73;;;12.30;79.60;;;;;;5053176;28;20192;-86
2022/05/28 08:54:58;;;;;;;19.90;3.73;;;12.20;79.60;;;;;;5035950;28;20650;-85
2022/05/28 08:57:57;;;;;;;18.90;4.13;;;12.00;80.10;;;;;;5035715;28;20172;-85
2022/05/28 09:00:42;;;;;;;21.60;5.13;;;11.80;78.90;;;;;;5053544;28;20156;-86
2022/05/28 09:03:39;;;;;;;15.27;4.37;;;11.90;79.40;;;;;;5035349;28;20195;-85
2022/05/28 09:06:16;;;;;;;15.97;3.73;;;12.00;79.20;;;;;;5006067;28;20184;-86
2022/05/28 09:08:48;;;;;;;22.07;5.27;;;12.20;78.20;;;;;;5039383;28;20540;-85
2022/05/28 09:11:37;;;;;;;15.43;3.70;;;12.40;78.00;;;;;;5038977;28;20175;-86
2022/05/28 09:14:16;;;;;;;27.70;4.53;;;12.50;77.50;;;;;;5056949;28;20161;-85
2022/05/28 09:16:44;;;;;;;14.77;3.13;;;12.50;77.40;;;;;;5038976;28;20199;-86
2022/05/28 09:19:19;;;;;;;18.80;3.43;;;12.40;75.20;;;;;;5039805;28;20249;-86
2022/05/28 09:21:47;;;;;;;15.33;3.67;;;12.30;75.70;;;;;;5042077;28;20160;-86
2022/05/28 09:24:25;;;;;;;17.67;3.70;;;12.30;75.70;;;;;;5059468;28;20255;-86
2022/05/28 09:27:15;;;;;;;26.00;4.80;;;12.40;76.10;;;;;;5042321;28;20188;-86
2022/05/28 09:30:12;;;;;;;22.20;3.60;;;12.50;75.90;;;;;;5044133;28;20226;-85
2022/05/28 09:33:17;;;;;;;14.13;4.00;;;12.50;75.60;;;;;;5007897;28;20736;-88
2022/05/28 09:36:06;;;;;;;22.50;4.07;;;12.50;75.10;;;;;;5058835;28;20199;-86
2022/05/28 09:39:01;;;;;;;15.83;4.10;;;12.80;74.90;;;;;;5039462;28;20160;-87
2022/05/28 09:41:48;;;;;;;17.70;3.50;;;13.20;75.80;;;;;;5041040;28;20179;-88
2022/05/28 09:44:43;;;;;;;23.20;4.30;;;13.00;74.20;;;;;;5039746;28;20171;-88
2022/05/28 09:47:12;;;;;;;21.70;4.50;;;12.60;74.50;;;;;;5039860;28;20168;-89
2022/05/28 09:49:51;;;;;;;17.17;3.60;;;12.50;75.50;;;;;;5038438;28;20553;-85
2022/05/28 09:52:34;;;;;;;16.70;3.63;;;12.70;75.00;;;;;;5038310;28;20745;-86
2022/05/28 09:55:32;;;;;;;18.80;3.40;;;12.80;75.40;;;;;;5057491;28;20744;-86
2022/05/28 09:58:02;;;;;;;19.10;3.67;;;12.60;76.30;;;;;;5015709;28;20212;-87
2022/05/28 10:00:29;;;;;;;22.63;3.90;;;12.60;76.80;;;;;;5042727;28;20219;-88
2022/05/28 10:05:56;;;;;;;19.43;3.83;;;12.80;78.10;;;;;;5061083;28;20683;-87
2022/05/28 10:08:31;;;;;;;19.27;3.67;;;12.90;76.60;;;;;;5042104;28;20646;-87
2022/05/28 10:11:00;;;;;;;15.13;3.47;;;13.10;76.20;;;;;;5043264;28;20202;-87
2022/05/28 10:13:28;;;;;;;19.83;3.80;;;13.50;76.30;;;;;;5059757;28;20223;-87
2022/05/28 10:16:04;;;;;;;13.23;2.57;;;13.70;75.40;;;;;;5040775;28;20203;-86
2022/05/28 10:18:38;;;;;;;19.20;2.83;;;13.90;73.70;;;;;;5056672;28;20175;-86
2022/05/28 10:21:15;;;;;;;13.00;3.33;;;13.90;71.10;;;;;;5039578;28;20167;-87
2022/05/28 10:23:44;;;;;;;18.17;4.10;;;13.80;70.60;;;;;;5057384;28;20195;-88
2022/05/28 10:26:25;;;;;;;21.27;3.60;;;14.00;71.70;;;;;;5057471;28;20184;-85
2022/05/28 10:28:53;;;;;;;18.20;3.67;;;14.00;70.70;;;;;;5059072;28;20626;-86
2022/05/28 10:31:28;;;;;;;13.97;3.23;;;13.80;69.80;;;;;;5039276;28;20542;-83
2022/05/28 10:33:54;;;;;;;19.13;4.13;;;13.80;70.10;;;;;;5056811;28;20536;-85
2022/05/28 10:36:23;;;;;;;16.30;3.90;;;14.00;69.90;;;;;;5057018;28;20196;-85
2022/05/28 10:38:49;;;;;;;12.00;2.70;;;14.00;70.20;;;;;;5038998;28;20256;-84
2022/05/28 10:41:28;;;;;;;15.80;3.67;;;13.80;69.80;;;;;;5057763;28;20642;-84
2022/05/28 10:43:54;;;;;;;11.63;3.03;;;13.40;71.10;;;;;;5039961;28;20286;-86
2022/05/28 10:46:28;;;;;;;13.60;2.77;;;13.20;71.30;;;;;;5058552;28;20215;-86
2022/05/28 10:49:21;;;;;;;20.13;3.13;;;13.30;73.30;;;;;;5057937;28;20156;-84
2022/05/28 10:51:56;;;;;;;14.70;2.80;;;13.50;72.70;;;;;;5039528;28;20239;-86
2022/05/28 10:54:21;;;;;;;9.33;2.83;;;13.70;73.80;;;;;;5039692;28;20255;-84
2022/05/28 10:56:51;;;;;;;13.67;2.50;;;13.80;74.00;;;;;;5039799;28;20215;-87
2022/05/28 10:59:25;;;;;;;17.50;3.47;;;14.00;73.60;;;;;;5040071;28;20177;-86
2022/05/28 11:01:57;;;;;;;13.17;3.30;;;14.20;73.10;;;;;;5039354;28;20198;-84
2022/05/28 11:04:48;;;;;;;21.20;4.07;;;13.80;72.90;;;;;;5039269;28;20168;-83
2022/05/28 11:07:37;;;;;;;30.93;5.83;;;13.50;74.30;;;;;;5040037;28;20172;-84
2022/05/28 11:10:22;;;;;;;21.80;4.90;;;13.60;74.50;;;;;;5039594;28;20191;-84
2022/05/28 11:13:02;;;;;;;21.83;4.20;;;13.70;73.10;;;;;;5039286;28;20200;-84
2022/05/28 11:15:46;;;;;;;25.37;5.03;;;13.80;72.60;;;;;;5038588;28;20207;-83
2022/05/28 11:18:26;;;;;;;25.17;4.70;;;13.70;72.50;;;;;;5057205;28;20164;-83
2022/05/28 11:21:33;;;;;;;25.90;4.97;;;13.50;73.30;;;;;;5039599;28;20163;-83
2022/05/28 11:24:02;;;;;;;23.90;4.20;;;13.50;73.80;;;;;;5039731;28;20539;-84
2022/05/28 11:26:35;;;;;;;22.27;4.30;;;13.50;71.80;;;;;;5057341;28;20214;-84
2022/05/28 11:29:49;;;;;;;18.23;4.27;;;13.60;72.00;;;;;;5038870;28;20531;-84
2022/05/28 11:32:19;;;;;;;18.23;4.07;;;13.50;71.20;;;;;;4975657;28;20209;-84
2022/05/28 11:34:56;;;;;;;18.80;4.13;;;13.50;71.20;;;;;;4975887;28;20761;-84
2022/05/28 11:37:35;;;;;;;20.20;4.47;;;13.70;70.50;;;;;;5028218;28;20651;-85
2022/05/28 11:40:10;;;;;;;18.10;3.33;;;13.80;70.10;;;;;;5039146;28;20541;-84
2022/05/28 11:42:53;;;;;;;15.50;3.73;;;13.80;70.00;;;;;;5039285;28;20191;-84
2022/05/28 11:45:32;;;;;;;15.00;3.50;;;13.90;69.40;;;;;;5057818;28;20164;-85
2022/05/28 11:48:04;;;;;;;15.87;3.47;;;13.70;67.50;;;;;;5039454;28;20188;-84
2022/05/28 11:53:41;;;;;;;16.57;3.07;;;13.60;68.20;;;;;;5056627;28;20250;-84
2022/05/28 11:56:13;;;;;;;11.47;2.97;;;13.80;68.60;;;;;;5038977;28;20221;-83
2022/05/28 11:58:46;;;;;;;14.73;3.37;;;13.80;68.10;;;;;;5039715;28;20168;-84
2022/05/28 12:01:17;;;;;;;20.40;4.23;;;13.80;68.60;;;;;;5039424;28;20196;-84
2022/05/28 12:03:45;;;;;;;15.57;3.17;;;13.80;69.00;;;;;;5057009;28;20188;-84
2022/05/28 12:06:18;;;;;;;17.80;3.70;;;13.80;69.20;;;;;;5056069;28;20649;-84
2022/05/28 12:08:58;;;;;;;21.33;4.03;;;13.80;69.30;;;;;;5055639;28;20156;-84
2022/05/28 12:11:44;;;;;;;13.37;3.40;;;13.80;68.60;;;;;;5038824;28;20180;-85
2022/05/28 12:14:41;;;;;;;16.97;3.47;;;13.60;68.00;;;;;;5038621;28;20198;-84
2022/05/28 12:17:17;;;;;;;12.47;3.17;;;13.40;68.80;;;;;;5055937;28;20160;-83
2022/05/28 12:19:51;;;;;;;16.37;3.13;;;13.30;66.60;;;;;;5037744;28;20167;-83
2022/05/28 12:22:41;;;;;;;15.27;3.07;;;13.30;67.70;;;;;;5038381;28;20196;-83
2022/05/28 12:25:14;;;;;;;16.67;3.37;;;13.60;68.20;;;;;;5055221;28;20163;-83
2022/05/28 12:28:08;;;;;;;14.23;3.43;;;13.60;67.80;;;;;;5038296;28;20691;-82
2022/05/28 12:30:41;;;;;;;17.70;3.40;;;13.60;66.50;;;;;;5055149;28;20160;-83
2022/05/28 12:33:31;;;;;;;10.50;3.27;;;13.40;66.70;;;;;;5055153;28;20202;-84
2022/05/28 12:36:09;;;;;;;14.07;3.37;;;13.40;67.90;;;;;;5038423;28;20200;-83
2022/05/28 12:38:43;;;;;;;14.90;2.87;;;13.30;68.50;;;;;;5038558;28;20190;-83
2022/05/28 12:41:22;;;;;;;14.93;3.93;;;13.10;68.70;;;;;;5042052;28;20187;-83
2022/05/28 12:43:54;;;;;;;16.70;3.43;;;13.00;69.50;;;;;;5041168;28;20685;-82
2022/05/28 12:46:40;;;;;;;11.60;2.97;;;12.90;70.50;;;;;;5040619;28;20190;-83
2022/05/28 12:49:13;;;;;;;16.93;3.33;;;12.90;71.50;;;;;;5042423;28;20179;-83
2022/05/28 12:52:01;;;;;;;14.07;2.90;;;12.80;70.60;;;;;;5041385;28;20176;-85
2022/05/28 12:54:29;;;;;;;23.37;4.37;;;12.80;71.20;;;;;;5042821;28;20172;-86
2022/05/28 12:57:25;;;;;;;22.07;3.67;;;12.80;70.80;;;;;;5043211;28;20257;-84
2022/05/28 13:00:01;;;;;;;12.73;2.77;;;12.70;70.90;;;;;;5043549;28;20258;-84
2022/05/28 13:02:32;;;;;;;14.53;3.30;;;12.70;71.70;;;;;;5059984;28;20727;-84
2022/05/28 13:05:27;;;;;;;16.70;3.80;;;12.70;71.90;;;;;;5042934;28;20188;-83
2022/05/28 13:07:57;;;;;;;16.23;2.87;;;12.50;70.90;;;;;;5042669;28;20176;-84
2022/05/28 13:10:28;;;;;;;20.90;3.53;;;12.60;71.60;;;;;;5061123;28;20649;-84